createdAt,value
2024-04-26T00:02:11.071Z,8.38
2024-04-26T00:04:37.585Z,8.27
2024-04-26T00:07:04.097Z,8.63
2024-04-26T00:09:30.597Z,8.70
2024-04-26T00:11:57.132Z,9.20
2024-04-26T00:14:24.511Z,9.23
2024-04-26T00:16:51.177Z,9.00
2024-04-26T00:19:17.777Z,9.20
2024-04-26T00:21:46.993Z,9.77
2024-04-26T00:24:20.032Z,8.18
2024-04-26T00:26:49.695Z,7.65
2024-04-26T00:29:16.490Z,8.43
2024-04-26T00:31:42.986Z,8.52
2024-04-26T00:34:09.487Z,7.90
2024-04-26T00:36:40.591Z,8.00
2024-04-26T00:39:07.073Z,8.70
2024-04-26T00:41:34.497Z,7.95
2024-04-26T00:44:05.286Z,8.25
2024-04-26T00:46:31.741Z,7.75
2024-04-26T00:48:58.382Z,8.40
2024-04-26T00:51:24.970Z,8.00
2024-04-26T00:53:51.877Z,8.15
2024-04-26T00:56:18.497Z,7.38
2024-04-26T00:58:46.289Z,8.55
2024-04-26T01:01:12.851Z,8.30
2024-04-26T01:03:39.405Z,9.85
2024-04-26T01:06:06.025Z,8.48
2024-04-26T01:08:32.582Z,8.85
2024-04-26T01:10:59.167Z,9.00
2024-04-26T01:13:25.740Z,8.82
2024-04-26T01:15:52.214Z,8.48
2024-04-26T01:18:18.989Z,8.68
2024-04-26T01:20:45.678Z,8.15
2024-04-26T01:23:12.248Z,8.57
2024-04-26T01:25:38.766Z,8.60
2024-04-26T01:28:05.388Z,8.32
2024-04-26T01:30:31.864Z,7.57
2024-04-26T01:32:58.456Z,7.00
2024-04-26T01:35:25.091Z,6.88
2024-04-26T01:37:51.599Z,7.20
2024-04-26T01:40:18.133Z,6.90
2024-04-26T01:42:44.586Z,6.82
2024-04-26T01:45:11.238Z,6.70
2024-04-26T01:47:37.774Z,6.65
2024-04-26T01:50:04.435Z,6.80
2024-04-26T01:52:30.895Z,7.20
2024-04-26T01:54:57.389Z,6.85
2024-04-26T01:57:23.852Z,7.00
2024-04-26T01:59:50.338Z,6.93
2024-04-26T02:02:16.844Z,6.20
2024-04-26T02:04:43.388Z,6.75
2024-04-26T02:07:09.850Z,6.90
2024-04-26T02:09:36.330Z,6.88
2024-04-26T02:12:02.912Z,7.07
2024-04-26T02:14:29.530Z,6.75
2024-04-26T02:16:57.097Z,6.68
2024-04-26T02:19:23.714Z,7.00
2024-04-26T02:21:50.216Z,7.10
2024-04-26T02:24:16.802Z,7.20
2024-04-26T02:26:43.338Z,7.13
2024-04-26T02:29:09.838Z,7.15
2024-04-26T02:31:36.338Z,8.05
2024-04-26T02:34:03.119Z,7.88
2024-04-26T02:36:29.765Z,7.55
2024-04-26T02:38:56.271Z,7.50
2024-04-26T02:41:24.511Z,7.90
2024-04-26T02:43:51.303Z,8.98
2024-04-26T02:46:18.042Z,8.32
2024-04-26T02:48:44.685Z,10.32
2024-04-26T02:51:11.633Z,8.95
2024-04-26T02:53:38.890Z,8.88
2024-04-26T02:56:05.609Z,8.38
2024-04-26T02:58:32.082Z,8.90
2024-04-26T03:00:58.677Z,8.35
2024-04-26T03:03:25.410Z,8.60
2024-04-26T03:05:51.966Z,9.02
2024-04-26T03:08:18.761Z,8.63
2024-04-26T03:10:48.021Z,8.48
2024-04-26T03:13:15.787Z,8.68
2024-04-26T03:15:43.233Z,8.85
2024-04-26T03:18:10.082Z,8.68
2024-04-26T03:20:36.635Z,9.73
2024-04-26T03:23:03.110Z,10.18
2024-04-26T03:25:29.560Z,9.80
2024-04-26T03:27:57.348Z,9.70
2024-04-26T03:30:23.847Z,10.35
2024-04-26T03:32:50.518Z,10.32
2024-04-26T03:35:17.074Z,9.98
2024-04-26T03:37:44.276Z,10.65
2024-04-26T03:40:13.658Z,9.90
2024-04-26T03:42:43.165Z,9.20
2024-04-26T03:45:09.737Z,9.83
2024-04-26T03:47:36.486Z,9.40
2024-04-26T03:50:03.120Z,8.88
2024-04-26T03:52:29.862Z,10.48
2024-04-26T03:54:56.391Z,10.02
2024-04-26T03:57:22.901Z,10.32
2024-04-26T03:59:49.791Z,10.00
2024-04-26T04:02:16.356Z,9.50
2024-04-26T04:04:42.845Z,10.73
2024-04-26T04:07:09.343Z,10.65
2024-04-26T04:09:35.779Z,10.40
2024-04-26T04:12:02.391Z,10.07
2024-04-26T04:14:28.931Z,10.20
2024-04-26T04:16:55.486Z,10.23
2024-04-26T04:19:22.084Z,10.10
2024-04-26T04:21:48.631Z,10.30
2024-04-26T04:24:15.133Z,11.38
2024-04-26T04:26:41.656Z,10.32
2024-04-26T04:29:09.480Z,9.90
2024-04-26T04:31:35.932Z,29.65
2024-04-26T04:34:02.573Z,25.08
2024-04-26T04:36:31.580Z,19.58
2024-04-26T04:38:58.585Z,11.85
2024-04-26T04:41:25.137Z,10.85
2024-04-26T04:43:51.604Z,10.90
2024-04-26T04:46:18.121Z,10.13
2024-04-26T04:48:44.667Z,11.32
2024-04-26T04:51:11.243Z,10.98
2024-04-26T04:53:39.298Z,10.35
2024-04-26T04:56:06.176Z,10.40
2024-04-26T04:58:32.671Z,10.10
2024-04-26T05:00:59.165Z,10.32
2024-04-26T05:03:25.727Z,10.65
2024-04-26T05:05:52.352Z,10.15
2024-04-26T05:08:18.883Z,10.88
2024-04-26T05:10:45.438Z,10.63
2024-04-26T05:13:11.967Z,10.10
2024-04-26T05:15:38.685Z,9.98
2024-04-26T05:18:05.367Z,10.02
2024-04-26T05:20:32.043Z,10.10
2024-04-26T05:22:58.627Z,9.85
2024-04-26T05:25:25.361Z,10.20
2024-04-26T05:27:51.875Z,10.65
2024-04-26T05:30:21.574Z,10.63
2024-04-26T05:32:48.531Z,10.45
2024-04-26T05:35:15.091Z,9.68
2024-04-26T05:37:41.639Z,10.05
2024-04-26T05:40:09.505Z,10.07
2024-04-26T05:42:35.967Z,9.50
2024-04-26T05:45:02.594Z,10.20
2024-04-26T05:47:30.062Z,10.25
2024-04-26T05:49:57.178Z,10.20
2024-04-26T05:52:23.652Z,10.18
2024-04-26T05:54:50.092Z,9.65
2024-04-26T05:57:16.911Z,10.18
2024-04-26T05:59:43.503Z,9.82
2024-04-26T06:02:10.000Z,9.45
2024-04-26T06:04:39.070Z,10.10
2024-04-26T06:07:08.670Z,9.70
2024-04-26T06:09:37.080Z,9.82
2024-04-26T06:12:03.818Z,10.60
2024-04-26T06:14:30.384Z,9.85
2024-04-26T06:16:58.476Z,9.70
2024-04-26T06:19:25.231Z,9.85
2024-04-26T06:21:51.844Z,10.20
2024-04-26T06:24:18.544Z,10.27
2024-04-26T06:26:45.073Z,9.60
2024-04-26T06:29:11.604Z,9.07
2024-04-26T06:31:43.119Z,9.32
2024-04-26T06:34:10.043Z,9.65
2024-04-26T06:36:36.649Z,9.63
2024-04-26T06:39:03.237Z,9.60
2024-04-26T06:41:29.811Z,9.35
2024-04-26T06:44:02.907Z,8.85
2024-04-26T06:46:33.494Z,9.02
2024-04-26T06:49:00.160Z,9.73
2024-04-26T06:51:26.735Z,10.18
2024-04-26T06:53:53.263Z,10.18
2024-04-26T06:56:19.754Z,9.93
2024-04-26T06:58:46.211Z,9.80
2024-04-26T07:01:12.757Z,10.13
2024-04-26T07:03:40.480Z,9.52
2024-04-26T07:06:08.999Z,9.98
2024-04-26T07:08:35.649Z,9.75
2024-04-26T07:11:02.190Z,9.52
2024-04-26T07:13:28.826Z,9.80
2024-04-26T07:15:57.418Z,9.13
2024-04-26T07:20:52.234Z,9.90
2024-04-26T07:23:18.954Z,9.70
2024-04-26T07:25:45.394Z,9.68
2024-04-26T07:28:12.014Z,9.43
2024-04-26T07:30:38.754Z,9.48
2024-04-26T07:33:05.752Z,9.15
2024-04-26T07:35:32.487Z,10.57
2024-04-26T07:38:00.565Z,8.15
2024-04-26T07:40:27.211Z,8.52
2024-04-26T07:42:53.680Z,8.77
2024-04-26T07:45:20.191Z,8.77
2024-04-26T07:47:46.822Z,9.30
2024-04-26T07:50:13.425Z,7.88
2024-04-26T07:52:39.892Z,8.20
2024-04-26T07:55:06.583Z,8.27
2024-04-26T07:57:33.064Z,7.78
2024-04-26T07:59:59.591Z,8.05
2024-04-26T08:02:26.494Z,7.53
2024-04-26T08:04:53.609Z,6.10
2024-04-26T08:07:20.175Z,7.10
2024-04-26T08:09:46.642Z,7.03
2024-04-26T08:12:13.308Z,6.93
2024-04-26T08:14:39.930Z,7.10
2024-04-26T08:17:06.559Z,8.10
2024-04-26T08:19:33.272Z,7.72
2024-04-26T08:21:59.727Z,7.57
2024-04-26T08:24:26.258Z,7.35
2024-04-26T08:26:52.740Z,7.50
2024-04-26T08:29:19.445Z,6.93
2024-04-26T08:31:46.636Z,7.80
2024-04-26T08:34:13.260Z,6.93
2024-04-26T08:36:42.172Z,7.30
2024-04-26T08:39:09.465Z,6.93
2024-04-26T08:41:36.072Z,7.07
2024-04-26T08:44:03.283Z,7.30
2024-04-26T08:46:37.589Z,7.03
2024-04-26T08:49:11.290Z,6.75
2024-04-26T08:51:39.216Z,7.18
2024-04-26T08:54:05.801Z,7.38
2024-04-26T08:56:36.949Z,7.07
2024-04-26T08:59:03.718Z,6.53
2024-04-26T09:01:30.673Z,6.88
2024-04-26T09:03:57.360Z,7.03
2024-04-26T09:06:24.636Z,7.93
2024-04-26T09:08:51.143Z,7.90
2024-04-26T09:11:17.855Z,8.00
2024-04-26T09:13:44.386Z,7.38
2024-04-26T09:16:11.041Z,8.20
2024-04-26T09:18:37.743Z,8.55
2024-04-26T09:21:07.591Z,7.95
2024-04-26T09:23:34.258Z,8.80
2024-04-26T09:26:04.992Z,8.45
2024-04-26T09:28:31.517Z,8.20
2024-04-26T09:30:58.041Z,8.70
2024-04-26T09:33:25.752Z,8.60
2024-04-26T09:35:54.322Z,8.75
2024-04-26T09:38:22.473Z,6.60
2024-04-26T09:40:49.610Z,8.20
2024-04-26T09:43:18.019Z,6.80
2024-04-26T09:45:44.770Z,9.27
2024-04-26T09:48:12.842Z,7.40
2024-04-26T09:50:40.142Z,7.70
2024-04-26T09:53:07.139Z,7.80
2024-04-26T09:55:33.962Z,8.43
2024-04-26T09:58:01.375Z,9.27
2024-04-26T10:00:29.514Z,8.48
2024-04-26T10:03:01.174Z,7.10
2024-04-26T10:05:28.419Z,8.68
2024-04-26T10:08:01.821Z,6.53
2024-04-26T10:10:29.045Z,8.98
2024-04-26T10:13:17.331Z,8.05
2024-04-26T10:15:53.604Z,6.60
2024-04-26T10:18:20.304Z,6.78
2024-04-26T10:20:47.605Z,8.25
2024-04-26T10:23:14.980Z,8.07
2024-04-26T10:25:41.938Z,7.45
2024-04-26T10:28:12.059Z,8.02
2024-04-26T10:30:45.610Z,8.10
2024-04-26T10:33:12.355Z,7.40
2024-04-26T10:35:39.119Z,7.78
2024-04-26T10:38:07.573Z,7.88
2024-04-26T10:40:43.972Z,7.85
2024-04-26T10:43:10.515Z,9.75
2024-04-26T10:45:37.030Z,9.38
2024-04-26T10:48:03.916Z,9.20
2024-04-26T10:50:30.563Z,9.43
2024-04-26T10:53:06.752Z,8.63
2024-04-26T10:55:36.486Z,7.70
2024-04-26T10:58:03.014Z,8.65
2024-04-26T11:00:40.137Z,7.72
2024-04-26T11:03:10.378Z,8.52
2024-04-26T11:05:44.574Z,8.32
2024-04-26T11:08:11.114Z,8.75
2024-04-26T11:10:38.111Z,8.13
2024-04-26T11:13:04.593Z,8.82
2024-04-26T11:15:31.201Z,8.32
2024-04-26T11:17:57.872Z,7.47
2024-04-26T11:20:24.487Z,8.20
2024-04-26T11:22:50.961Z,5.35
2024-04-26T11:25:17.556Z,7.15
2024-04-26T11:27:46.479Z,6.95
2024-04-26T11:30:14.297Z,8.32
2024-04-26T11:32:41.122Z,7.93
2024-04-26T11:35:08.273Z,6.80
2024-04-26T11:37:34.918Z,7.13
2024-04-26T11:40:01.442Z,8.98
2024-04-26T11:42:29.138Z,9.95
2024-04-26T11:44:55.694Z,9.27
2024-04-26T11:47:22.725Z,9.00
2024-04-26T11:49:50.584Z,9.48
2024-04-26T11:52:17.209Z,9.55
2024-04-26T11:54:43.677Z,8.75
2024-04-26T11:57:11.013Z,7.75
2024-04-26T11:59:37.680Z,7.80
2024-04-26T12:02:04.319Z,8.25
2024-04-26T12:04:30.915Z,8.90
2024-04-26T12:06:57.425Z,7.65
2024-04-26T12:09:23.958Z,8.35
2024-04-26T12:11:50.767Z,8.07
2024-04-26T12:14:17.420Z,8.02
2024-04-26T12:16:48.753Z,8.57
2024-04-26T12:19:15.652Z,7.43
2024-04-26T12:21:42.262Z,7.50
2024-04-26T12:24:10.647Z,7.07
2024-04-26T12:26:37.268Z,7.82
2024-04-26T12:29:04.358Z,7.63
2024-04-26T12:31:31.663Z,8.05
2024-04-26T12:33:58.762Z,8.00
2024-04-26T12:36:26.233Z,8.50
2024-04-26T12:38:52.778Z,7.18
2024-04-26T12:41:19.307Z,7.10
2024-04-26T12:43:45.784Z,7.30
2024-04-26T12:46:15.776Z,6.07
2024-04-26T12:48:42.489Z,6.50
2024-04-26T12:51:09.227Z,5.35
2024-04-26T12:53:35.815Z,5.10
2024-04-26T12:56:02.309Z,5.88
2024-04-26T12:58:28.786Z,6.03
2024-04-26T13:00:55.273Z,6.93
2024-04-26T13:03:21.965Z,6.68
2024-04-26T13:05:48.572Z,6.35
2024-04-26T13:08:15.089Z,5.82
2024-04-26T13:10:41.793Z,5.55
2024-04-26T13:13:08.307Z,6.47
2024-04-26T13:15:34.816Z,5.70
2024-04-26T13:18:01.568Z,6.40
2024-04-26T13:20:28.311Z,6.57
2024-04-26T13:22:54.811Z,6.22
2024-04-26T13:25:21.264Z,6.57
2024-04-26T13:27:47.747Z,6.20
2024-04-26T13:30:14.414Z,6.70
2024-04-26T13:32:42.098Z,6.43
2024-04-26T13:35:09.026Z,6.70
2024-04-26T13:37:35.584Z,7.03
2024-04-26T13:40:02.173Z,6.80
2024-04-26T13:42:28.724Z,6.25
2024-04-26T13:44:55.370Z,6.10
2024-04-26T13:47:21.873Z,6.30
2024-04-26T13:49:48.489Z,5.40
2024-04-26T13:52:18.669Z,5.63
2024-04-26T13:54:45.504Z,5.85
2024-04-26T13:57:14.180Z,6.10
2024-04-26T13:59:40.868Z,5.80
2024-04-26T14:02:07.369Z,5.65
2024-04-26T14:04:34.241Z,5.75
2024-04-26T14:07:00.958Z,5.88
2024-04-26T14:09:27.436Z,5.70
2024-04-26T14:11:53.932Z,6.65
2024-04-26T14:14:20.431Z,6.45
2024-04-26T14:16:46.899Z,6.93
2024-04-26T14:19:13.616Z,6.45
2024-04-26T14:21:40.204Z,6.30
2024-04-26T14:24:06.827Z,6.10
2024-04-26T14:26:33.570Z,6.30
2024-04-26T14:29:00.090Z,5.95
2024-04-26T14:31:26.558Z,5.90
2024-04-26T14:33:53.185Z,5.70
2024-04-26T14:36:19.670Z,5.55
2024-04-26T14:38:46.429Z,5.30
2024-04-26T14:41:13.131Z,5.28
2024-04-26T14:43:40.546Z,5.40
2024-04-26T14:46:09.772Z,4.93
2024-04-26T14:48:36.659Z,5.57
2024-04-26T14:51:03.535Z,5.45
2024-04-26T14:53:30.002Z,5.38
2024-04-26T14:55:56.590Z,5.60
2024-04-26T14:58:23.165Z,5.63
2024-04-26T15:00:49.695Z,5.75
2024-04-26T15:03:16.171Z,5.78
2024-04-26T15:05:42.660Z,5.72
2024-04-26T15:08:09.159Z,5.07
2024-04-26T15:10:35.679Z,5.18
2024-04-26T15:13:02.140Z,5.10
2024-04-26T15:15:28.607Z,5.28
2024-04-26T15:17:55.735Z,5.00
2024-04-26T15:20:23.802Z,4.70
2024-04-26T15:22:50.411Z,4.78
2024-04-26T15:25:16.997Z,4.35
2024-04-26T15:27:43.650Z,4.60
2024-04-26T15:30:10.461Z,4.60
2024-04-26T15:32:40.201Z,4.70
2024-04-26T15:35:06.763Z,4.75
2024-04-26T15:37:33.243Z,5.00
2024-04-26T15:39:59.827Z,5.65
2024-04-26T15:42:26.296Z,5.90
2024-04-26T15:44:52.923Z,7.53
2024-04-26T15:47:19.418Z,7.40
2024-04-26T15:49:46.038Z,8.32
2024-04-26T15:52:13.100Z,8.52
2024-04-26T15:54:39.694Z,9.65
2024-04-26T15:57:06.142Z,9.60
2024-04-26T15:59:36.131Z,9.93
2024-04-26T16:02:05.596Z,7.68
2024-04-26T16:04:32.180Z,8.60
2024-04-26T16:06:59.131Z,8.20
2024-04-26T16:09:25.652Z,7.95
2024-04-26T16:11:55.028Z,7.72
2024-04-26T16:14:21.705Z,7.53
2024-04-26T16:16:48.389Z,5.95
2024-04-26T16:19:14.909Z,5.88
2024-04-26T16:21:44.432Z,5.30
2024-04-26T16:24:11.150Z,4.73
2024-04-26T16:26:37.744Z,4.72
2024-04-26T16:29:05.391Z,4.70
2024-04-26T16:31:31.998Z,5.13
2024-04-26T16:33:58.562Z,5.28
2024-04-26T16:36:25.826Z,5.30
2024-04-26T16:38:53.268Z,4.47
2024-04-26T16:41:20.949Z,4.85
2024-04-26T16:43:48.034Z,4.70
2024-04-26T16:46:25.669Z,4.60
2024-04-26T16:48:52.453Z,4.80
2024-04-26T16:51:19.938Z,4.68
2024-04-26T16:53:46.406Z,4.45
2024-04-26T16:56:13.183Z,4.40
2024-04-26T16:58:39.653Z,4.60
2024-04-26T17:01:06.285Z,5.18
2024-04-26T17:03:32.754Z,4.57
2024-04-26T17:05:59.536Z,4.75
2024-04-26T17:08:26.260Z,5.05
2024-04-26T17:10:53.944Z,5.47
2024-04-26T17:13:20.431Z,6.20
2024-04-26T17:15:46.958Z,6.50
2024-04-26T17:18:13.586Z,7.70
2024-04-26T17:20:40.174Z,7.38
2024-04-26T17:23:06.657Z,8.18
2024-04-26T17:25:36.186Z,7.78
2024-04-26T17:28:03.399Z,8.13
2024-04-26T17:30:30.195Z,8.65
2024-04-26T17:32:56.836Z,9.25
2024-04-26T17:35:23.390Z,8.20
2024-04-26T17:37:49.923Z,7.65
2024-04-26T17:40:16.414Z,7.95
2024-04-26T17:42:42.975Z,8.18
2024-04-26T17:45:09.480Z,8.20
2024-04-26T17:47:36.489Z,8.15
2024-04-26T17:50:03.172Z,8.95
2024-04-26T17:52:31.123Z,10.80
2024-04-26T17:54:57.636Z,10.23
2024-04-26T17:57:24.148Z,10.43
2024-04-26T17:59:50.595Z,10.15
2024-04-26T18:02:17.061Z,10.85
2024-04-26T18:04:43.582Z,11.45
2024-04-26T18:07:10.115Z,10.70
2024-04-26T18:09:36.587Z,10.80
2024-04-26T18:12:03.201Z,10.07
2024-04-26T18:14:30.017Z,10.77
2024-04-26T18:16:56.593Z,11.38
2024-04-26T18:19:23.270Z,10.98
2024-04-26T18:21:49.799Z,11.07
2024-04-26T18:24:16.274Z,10.30
2024-04-26T18:26:42.755Z,10.43
2024-04-26T18:29:09.221Z,10.90
2024-04-26T18:31:35.790Z,11.45
2024-04-26T18:34:02.533Z,13.98
2024-04-26T18:36:30.412Z,15.45
2024-04-26T18:38:56.830Z,16.40
2024-04-26T18:41:23.599Z,15.20
2024-04-26T18:43:50.095Z,15.98
2024-04-26T18:46:16.855Z,14.68
2024-04-26T18:48:44.055Z,13.73
2024-04-26T18:51:20.685Z,12.60
2024-04-26T18:53:47.149Z,13.20
2024-04-26T18:56:14.124Z,12.70
2024-04-26T18:58:41.006Z,12.55
2024-04-26T19:01:09.252Z,11.77
2024-04-26T19:03:38.926Z,11.50
2024-04-26T19:06:06.789Z,10.85
2024-04-26T19:08:33.346Z,10.45
2024-04-26T19:10:59.861Z,10.02
2024-04-26T19:13:26.946Z,10.25
2024-04-26T19:15:53.510Z,10.48
2024-04-26T19:18:20.094Z,11.40
2024-04-26T19:20:47.449Z,11.32
2024-04-26T19:23:14.002Z,12.70
2024-04-26T19:25:40.514Z,12.23
2024-04-26T19:28:07.108Z,11.88
2024-04-26T19:30:34.095Z,11.93
2024-04-26T19:33:00.667Z,11.45
2024-04-26T19:35:27.183Z,11.98
2024-04-26T19:37:53.716Z,11.43
2024-04-26T19:40:20.222Z,11.52
2024-04-26T19:42:47.112Z,11.77
2024-04-26T19:45:13.665Z,12.25
2024-04-26T19:47:41.988Z,12.48
2024-04-26T19:50:08.716Z,12.20
2024-04-26T19:52:53.902Z,12.20
2024-04-26T19:55:39.379Z,12.60
2024-04-26T19:58:05.857Z,12.60
2024-04-26T20:00:32.372Z,13.77
2024-04-26T20:02:58.894Z,13.38
2024-04-26T20:05:25.470Z,13.57
2024-04-26T20:07:51.987Z,12.90
2024-04-26T20:10:18.528Z,12.82
2024-04-26T20:12:45.932Z,12.60
2024-04-26T20:15:12.408Z,13.25
2024-04-26T20:17:38.904Z,12.82
2024-04-26T20:20:08.988Z,13.00
2024-04-26T20:22:37.176Z,13.48
2024-04-26T20:25:03.822Z,13.35
2024-04-26T20:27:31.105Z,13.93
2024-04-26T20:29:57.643Z,14.48
2024-04-26T20:32:24.144Z,14.48
2024-04-26T20:34:50.648Z,14.07
2024-04-26T20:37:17.127Z,14.02
2024-04-26T20:39:43.548Z,13.27
2024-04-26T20:42:10.009Z,12.93
2024-04-26T20:44:36.570Z,13.38
2024-04-26T20:47:03.125Z,13.93
2024-04-26T20:49:29.669Z,12.93
2024-04-26T20:51:58.358Z,13.02
2024-04-26T20:54:24.886Z,13.13
2024-04-26T20:56:51.415Z,12.48
2024-04-26T20:59:18.063Z,12.30
2024-04-26T21:01:44.882Z,12.48
2024-04-26T21:04:11.486Z,13.57
2024-04-26T21:06:37.976Z,12.57
2024-04-26T21:09:04.636Z,13.48
2024-04-26T21:11:32.622Z,13.02
2024-04-26T21:13:59.222Z,13.25
2024-04-26T21:16:25.879Z,12.40
2024-04-26T21:18:52.376Z,13.10
2024-04-26T21:21:20.174Z,12.80
2024-04-26T21:23:47.721Z,12.32
2024-04-26T21:26:46.605Z,12.77
2024-04-26T21:29:13.076Z,11.57
2024-04-26T21:31:39.756Z,12.68
2024-04-26T21:34:06.281Z,12.23
2024-04-26T21:36:35.266Z,12.60
2024-04-26T21:39:03.983Z,12.50
2024-04-26T21:41:30.465Z,12.70
2024-04-26T21:43:57.064Z,13.25
2024-04-26T21:46:23.616Z,13.63
2024-04-26T21:48:51.080Z,14.45
2024-04-26T21:51:24.769Z,13.48
2024-04-26T21:53:51.784Z,12.70
2024-04-26T21:56:18.354Z,12.98
2024-04-26T21:58:45.013Z,13.60
2024-04-26T22:01:13.216Z,13.25
2024-04-26T22:03:39.744Z,12.73
2024-04-26T22:06:06.282Z,12.43
2024-04-26T22:08:32.798Z,13.80
2024-04-26T22:10:59.280Z,21.67
2024-04-26T22:13:25.960Z,21.15
2024-04-26T22:15:53.296Z,16.95
2024-04-26T22:18:19.893Z,17.98
2024-04-26T22:20:46.421Z,16.23
2024-04-26T22:23:12.891Z,16.80
2024-04-26T22:25:39.399Z,17.80
2024-04-26T22:28:05.923Z,16.23
2024-04-26T22:30:32.859Z,15.88
2024-04-26T22:32:59.414Z,17.15
2024-04-26T22:35:25.943Z,18.98
2024-04-26T22:37:52.527Z,18.67
2024-04-26T22:40:19.063Z,21.08
2024-04-26T22:42:45.606Z,19.05
2024-04-26T22:45:12.113Z,19.02
2024-04-26T22:47:40.453Z,17.83
2024-04-26T22:50:07.246Z,17.83
2024-04-26T22:52:33.756Z,19.65
2024-04-26T22:55:00.296Z,18.75
2024-04-26T22:57:29.027Z,18.05
2024-04-26T22:59:56.580Z,19.10
2024-04-26T23:02:23.191Z,16.73
2024-04-26T23:04:49.787Z,17.65
2024-04-26T23:07:16.322Z,16.60
2024-04-26T23:09:42.798Z,16.83
2024-04-26T23:12:09.720Z,17.85
2024-04-26T23:14:36.210Z,17.75
2024-04-26T23:17:03.184Z,18.27
2024-04-26T23:19:29.764Z,18.00
2024-04-26T23:21:56.354Z,18.45
2024-04-26T23:24:23.419Z,20.85
2024-04-26T23:26:50.019Z,19.75
2024-04-26T23:29:16.633Z,19.90
2024-04-26T23:31:43.147Z,20.55
2024-04-26T23:34:09.635Z,20.52
2024-04-26T23:36:38.560Z,21.38
2024-04-26T23:39:05.185Z,21.63
2024-04-26T23:41:31.655Z,19.73
2024-04-26T23:43:58.292Z,22.48
2024-04-26T23:46:24.929Z,20.45
2024-04-26T23:48:51.481Z,19.42
2024-04-26T23:51:17.964Z,19.85
2024-04-26T23:53:44.411Z,20.05
2024-04-26T23:56:10.947Z,19.23
2024-04-26T23:58:37.452Z,19.20
